GRZ538 Details

Departure: Deadhorse Airport (PASC)
Arrival: Wiley Post-Will Rogers Memorial Airport (PABR) at N/A
Route: SCC OKIKE SEJYY BRW
Notes:


Current Weather Information
PASC 191553Z 28005KT 10SM OVC007 04/03 A3023 RMK AO2 SLP238 T00390028 $
PABR 191553Z 33009KT 9SM OVC004 04/03 A3027 RMK AO2 SLP250 T00390028